Pagina principale
METAR-TAF:

METAR-TAF

Aeroporti :

Aeroporto di Basilea-Mulhouse-Friburgo

Basilea-Mulhouse, Francia

latitudine: 47-36N, longitudine: 007-31E, altezza: 270 m

Osservazione

Il bollettino è stato emesso 39 minuti fa, alle 15:30 UTC
Vento 12 kt da nord/nord-ovest
Temperature 22°C
Umidità 31%
Pressione 1023 hPa
Visibilità 10 km o più
Poco nuvoloso ad un'altezza di 5000 ft

METAR: LFSB 231530Z 34012KT 9999 FEW050 22/04 Q1023 NOSIG

Ora: 18:09 (16:09 UTC)

Previsione

Il bollettino è stato emesso 5 ore e 9 minuti fa, alle 11:00 UTC
Previsione valida dal 23 alle 12 UTC al 24 alle 12 UTC
Vento 6 kt da nord
Visibilità 10 km o più
Poco nuvoloso ad un'altezza di 5000 ft

TAF: LFSB 231100Z 2312/2412 36006KT 9999 FEW050

Osservazioni e previsioni meteorologiche di più di 4000 aeroporti (messaggi METAR e TAF).

Le stazioni disponibili sono rappresentate dai dischi gialli e rossi sulla carta.

Puntare il mouse per vedere il nome della stazione.

Clicca sopra per visualizzare le osservazioni e previsioni meteorologiche.

Per cambiare la mappa : fare clic sui pulsanti verdi con una croce nera per ingrandire, il pulsante verde con un trattino per diminuire, o sulla freccia verde per le mappe adiacenti.


METAR-TAF: